createdAt,value
2022-10-19T00:01:17.158Z,0.70
2022-10-19T00:06:20.363Z,0.50
2022-10-19T00:08:48.679Z,0.95
2022-10-19T00:11:17.087Z,0.50
2022-10-19T00:13:45.418Z,0.70
2022-10-19T00:16:15.423Z,0.60
2022-10-19T00:18:45.032Z,0.70
2022-10-19T00:21:16.375Z,0.60
2022-10-19T00:23:44.955Z,0.65
2022-10-19T00:26:13.674Z,0.88
2022-10-19T00:28:42.544Z,0.60
2022-10-19T00:31:14.244Z,0.80
2022-10-19T00:33:42.933Z,0.70
2022-10-19T00:36:18.266Z,0.80
2022-10-19T00:38:49.260Z,0.75
2022-10-19T00:41:18.284Z,0.95
2022-10-19T00:43:58.524Z,0.70
2022-10-19T00:46:30.096Z,0.80
2022-10-19T00:49:02.117Z,1.05
2022-10-19T00:51:34.104Z,0.73
2022-10-19T00:54:03.109Z,1.00
2022-10-19T00:56:31.603Z,0.85
2022-10-19T00:59:00.095Z,0.82
2022-10-19T01:01:28.885Z,0.90
2022-10-19T01:03:57.269Z,0.77
2022-10-19T01:06:26.038Z,0.77
2022-10-19T01:08:55.917Z,0.88
2022-10-19T01:11:33.577Z,1.02
2022-10-19T01:14:14.801Z,0.90
2022-10-19T01:16:48.881Z,1.00
2022-10-19T01:19:38.525Z,1.20
2022-10-19T01:22:15.243Z,1.20
2022-10-19T01:24:56.722Z,1.30
2022-10-19T01:28:03.394Z,1.05
2022-10-19T01:30:43.921Z,1.20
2022-10-19T01:33:35.950Z,1.27
2022-10-19T01:36:10.651Z,1.20
2022-10-19T01:38:46.181Z,1.38
2022-10-19T01:41:18.223Z,1.33
2022-10-19T01:43:50.081Z,0.93
2022-10-19T01:46:23.144Z,0.98
2022-10-19T01:48:55.388Z,1.02
2022-10-19T01:51:27.038Z,0.95
2022-10-19T01:53:57.929Z,0.75
2022-10-19T01:56:28.929Z,0.80
2022-10-19T01:59:00.473Z,1.02
2022-10-19T02:01:42.326Z,1.20
2022-10-19T02:04:11.705Z,1.13
2022-10-19T02:06:41.183Z,1.08
2022-10-19T02:09:10.019Z,1.02
2022-10-19T02:11:39.002Z,1.17
2022-10-19T02:14:11.147Z,0.88
2022-10-19T02:16:45.808Z,1.08
2022-10-19T02:21:42.483Z,1.05
2022-10-19T02:24:10.855Z,1.20
2022-10-19T02:26:39.953Z,1.10
2022-10-19T02:29:08.608Z,1.00
2022-10-19T02:31:37.081Z,1.23
2022-10-19T02:34:07.038Z,1.20
2022-10-19T02:36:35.449Z,1.30
2022-10-19T02:39:03.844Z,1.30
2022-10-19T02:41:36.098Z,1.10
2022-10-19T02:44:07.633Z,1.20
2022-10-19T02:46:42.061Z,1.10
2022-10-19T02:49:12.649Z,1.25
2022-10-19T02:51:42.345Z,1.27
2022-10-19T02:54:10.711Z,1.25
2022-10-19T02:56:39.084Z,1.60
2022-10-19T02:59:07.452Z,1.40
2022-10-19T03:01:35.775Z,1.40
2022-10-19T03:04:04.104Z,1.30
2022-10-19T03:06:33.827Z,1.30
2022-10-19T03:09:02.313Z,1.45
2022-10-19T03:11:30.623Z,1.60
2022-10-19T03:13:58.975Z,1.67
2022-10-19T03:16:27.306Z,1.38
2022-10-19T03:18:55.642Z,1.40
2022-10-19T03:21:24.003Z,1.23
2022-10-19T03:23:54.639Z,1.13
2022-10-19T03:26:22.957Z,1.15
2022-10-19T03:28:51.341Z,1.08
2022-10-19T03:31:19.757Z,0.95
2022-10-19T03:33:48.072Z,0.95
2022-10-19T03:36:22.953Z,1.13
2022-10-19T03:38:53.835Z,1.17
2022-10-19T03:41:23.027Z,1.15
2022-10-19T03:43:51.534Z,1.23
2022-10-19T03:46:20.555Z,1.05
2022-10-19T03:48:49.617Z,1.10
2022-10-19T03:51:20.543Z,1.27
2022-10-19T03:53:49.350Z,1.08
2022-10-19T03:56:20.279Z,1.45
2022-10-19T03:58:50.092Z,1.42
2022-10-19T04:01:20.564Z,1.30
2022-10-19T04:03:49.199Z,1.13
2022-10-19T04:06:21.333Z,1.42
2022-10-19T04:08:50.772Z,1.10
2022-10-19T04:11:23.477Z,2.03
2022-10-19T04:13:51.952Z,2.00
2022-10-19T04:16:20.709Z,1.85
2022-10-19T04:18:49.281Z,2.20
2022-10-19T04:21:24.812Z,2.25
2022-10-19T04:23:54.133Z,2.28
2022-10-19T04:26:23.880Z,2.50
2022-10-19T04:28:52.305Z,2.33
2022-10-19T04:31:20.622Z,2.80
2022-10-19T04:33:48.957Z,2.22
2022-10-19T04:36:17.577Z,2.58
2022-10-19T04:38:45.901Z,2.50
2022-10-19T04:41:16.120Z,2.70
2022-10-19T04:43:46.426Z,3.13
2022-10-19T04:46:16.658Z,2.80
2022-10-19T04:48:45.855Z,4.05
2022-10-19T04:51:14.580Z,3.83
2022-10-19T04:53:44.129Z,3.60
2022-10-19T04:56:14.893Z,4.13
2022-10-19T04:58:43.400Z,3.40
2022-10-19T05:01:17.573Z,3.72
2022-10-19T05:03:46.422Z,4.13
2022-10-19T05:06:16.265Z,4.45
2022-10-19T05:08:44.806Z,4.05
2022-10-19T05:11:15.401Z,4.75
2022-10-19T05:13:44.472Z,4.38
2022-10-19T05:16:16.111Z,4.95
2022-10-19T05:18:44.482Z,6.10
2022-10-19T05:21:14.089Z,5.53
2022-10-19T05:23:43.243Z,5.90
2022-10-19T05:26:13.255Z,7.00
2022-10-19T05:28:41.690Z,6.40
2022-10-19T05:31:12.065Z,6.88
2022-10-19T05:33:42.459Z,6.82
2022-10-19T05:36:16.346Z,7.25
2022-10-19T05:38:45.270Z,6.88
2022-10-19T05:41:14.364Z,5.65
2022-10-19T05:43:43.270Z,5.28
2022-10-19T05:46:12.977Z,5.43
2022-10-19T05:48:43.126Z,5.72
2022-10-19T05:51:13.374Z,5.28
2022-10-19T05:53:42.327Z,5.15
2022-10-19T05:56:14.925Z,4.90
2022-10-19T05:58:43.363Z,4.63
2022-10-19T06:01:12.211Z,5.10
2022-10-19T06:03:40.544Z,5.38
2022-10-19T06:06:10.773Z,5.00
2022-10-19T06:08:39.968Z,4.50
2022-10-19T06:11:09.952Z,4.78
2022-10-19T06:13:39.150Z,5.05
2022-10-19T06:16:08.831Z,5.40
2022-10-19T06:18:40.093Z,5.50
2022-10-19T06:21:13.079Z,5.35
2022-10-19T06:26:12.411Z,5.75
2022-10-19T06:28:41.940Z,5.40
2022-10-19T06:31:10.719Z,4.70
2022-10-19T06:33:40.768Z,4.80
2022-10-19T06:36:12.373Z,5.63
2022-10-19T06:38:40.891Z,5.68
2022-10-19T06:41:09.264Z,4.95
2022-10-19T06:43:37.793Z,4.00
2022-10-19T06:46:07.154Z,5.80
2022-10-19T06:48:35.747Z,6.07
2022-10-19T06:51:06.817Z,6.78
2022-10-19T06:53:37.036Z,6.05
2022-10-19T06:56:07.315Z,6.65
2022-10-19T06:58:36.852Z,7.50
2022-10-19T07:01:08.735Z,7.68
2022-10-19T07:03:38.062Z,5.53
2022-10-19T07:06:07.836Z,6.65
2022-10-19T07:08:38.872Z,7.10
2022-10-19T07:11:08.941Z,7.35
2022-10-19T07:13:37.634Z,7.32
2022-10-19T07:16:07.547Z,6.93
2022-10-19T07:18:36.877Z,7.00
2022-10-19T07:21:07.099Z,7.63
2022-10-19T07:23:38.619Z,7.43
2022-10-19T07:26:07.851Z,7.32
2022-10-19T07:28:36.416Z,7.72
2022-10-19T07:31:08.703Z,7.65
2022-10-19T07:33:37.375Z,6.47
2022-10-19T07:36:07.982Z,7.57
2022-10-19T07:38:38.258Z,8.32
2022-10-19T07:41:08.430Z,8.32
2022-10-19T07:43:37.184Z,8.73
2022-10-19T07:46:07.564Z,8.38
2022-10-19T07:48:36.129Z,9.05
2022-10-19T07:51:06.491Z,8.95
2022-10-19T07:53:35.346Z,9.73
2022-10-19T07:56:10.006Z,10.10
2022-10-19T08:01:08.263Z,11.63
2022-10-19T08:06:25.876Z,9.73
2022-10-19T08:08:55.061Z,9.57
2022-10-19T08:11:26.460Z,8.68
2022-10-19T08:13:55.120Z,10.23
2022-10-19T08:16:26.120Z,9.30
2022-10-19T08:18:58.128Z,9.18
2022-10-19T08:21:26.627Z,8.07
2022-10-19T08:23:55.032Z,7.32
2022-10-19T08:26:24.895Z,8.70
2022-10-19T08:28:53.314Z,8.80
2022-10-19T08:31:23.139Z,9.40
2022-10-19T08:33:52.112Z,8.23
2022-10-19T08:36:21.491Z,8.43
2022-10-19T08:38:50.394Z,8.80
2022-10-19T08:41:28.040Z,8.57
2022-10-19T08:44:22.049Z,8.35
2022-10-19T08:46:56.289Z,9.00
2022-10-19T08:49:26.433Z,8.30
2022-10-19T08:52:09.399Z,8.15
2022-10-19T08:54:42.241Z,8.43
2022-10-19T08:57:16.964Z,9.77
2022-10-19T09:02:19.397Z,7.93
2022-10-19T09:04:50.678Z,8.32
2022-10-19T09:07:25.990Z,8.57
2022-10-19T09:09:58.831Z,8.45
2022-10-19T09:12:35.268Z,9.43
2022-10-19T09:15:06.416Z,8.63
2022-10-19T09:17:35.060Z,8.60
2022-10-19T09:20:15.736Z,8.48
2022-10-19T09:22:44.796Z,7.07
2022-10-19T09:25:16.350Z,8.15
2022-10-19T09:27:48.955Z,7.40
2022-10-19T09:30:20.492Z,7.63
2022-10-19T09:32:50.310Z,7.88
2022-10-19T09:35:23.781Z,4.80
2022-10-19T09:37:52.517Z,6.57
2022-10-19T09:40:22.634Z,7.75
2022-10-19T09:42:57.263Z,7.85
2022-10-19T09:48:08.569Z,5.53
2022-10-19T09:50:44.987Z,7.13
2022-10-19T09:53:19.940Z,6.50
2022-10-19T09:55:52.199Z,7.15
2022-10-19T09:58:22.507Z,5.63
2022-10-19T10:00:54.952Z,5.97
2022-10-19T10:03:26.267Z,7.03
2022-10-19T10:05:55.102Z,5.10
2022-10-19T10:08:25.940Z,5.68
2022-10-19T10:10:58.339Z,5.35
2022-10-19T10:13:28.873Z,5.80
2022-10-19T10:15:58.806Z,6.07
2022-10-19T10:18:28.149Z,4.85
2022-10-19T10:21:07.012Z,4.95
2022-10-19T10:23:36.680Z,4.90
2022-10-19T10:26:07.183Z,4.35
2022-10-19T10:28:48.626Z,4.93
2022-10-19T10:31:17.326Z,4.80
2022-10-19T10:34:02.809Z,4.97
2022-10-19T10:36:40.722Z,4.63
2022-10-19T10:39:10.020Z,4.13
2022-10-19T10:41:39.815Z,4.80
2022-10-19T10:44:19.005Z,5.32
2022-10-19T10:46:53.268Z,5.85
2022-10-19T10:49:26.455Z,5.88
2022-10-19T10:51:57.435Z,5.80
2022-10-19T10:54:27.157Z,5.22
2022-10-19T10:57:12.367Z,6.40
2022-10-19T10:59:50.035Z,6.10
2022-10-19T11:02:33.778Z,6.20
2022-10-19T11:05:06.114Z,6.10
2022-10-19T11:07:36.381Z,6.80
2022-10-19T11:10:10.030Z,6.32
2022-10-19T11:12:40.963Z,6.88
2022-10-19T11:15:18.350Z,6.72
2022-10-19T11:17:55.171Z,8.10
2022-10-19T11:20:29.516Z,6.70
2022-10-19T11:23:05.264Z,7.03
2022-10-19T11:25:39.916Z,7.03
2022-10-19T11:28:19.739Z,6.63
2022-10-19T11:30:58.903Z,7.10
2022-10-19T11:33:40.502Z,6.85
2022-10-19T11:36:15.814Z,7.10
2022-10-19T11:38:52.831Z,6.30
2022-10-19T11:41:27.781Z,6.57
2022-10-19T11:44:08.845Z,5.30
2022-10-19T11:46:45.777Z,6.50
2022-10-19T11:49:22.755Z,6.53
2022-10-19T11:51:57.650Z,7.20
2022-10-19T11:54:44.837Z,7.85
2022-10-19T11:57:16.542Z,7.70
2022-10-19T11:59:57.580Z,7.05
2022-10-19T12:03:14.095Z,5.15
2022-10-19T12:05:52.639Z,8.18
2022-10-19T12:08:30.361Z,7.60
2022-10-19T12:11:03.000Z,8.13
2022-10-19T12:13:37.905Z,6.88
2022-10-19T12:16:07.804Z,5.53
2022-10-19T12:18:39.581Z,7.90
2022-10-19T12:21:13.195Z,6.90
2022-10-19T12:23:44.328Z,5.53
2022-10-19T12:26:16.594Z,5.78
2022-10-19T12:28:50.645Z,6.80
2022-10-19T12:31:19.565Z,8.30
2022-10-19T12:33:52.599Z,6.95
2022-10-19T12:36:29.001Z,6.63
2022-10-19T12:39:02.278Z,7.25
2022-10-19T12:41:35.239Z,5.03
2022-10-19T12:44:13.340Z,5.32
2022-10-19T12:46:45.242Z,7.40
2022-10-19T12:49:46.247Z,6.90
2022-10-19T12:52:20.247Z,6.97
2022-10-19T12:54:48.684Z,6.47
2022-10-19T12:57:27.859Z,7.05
2022-10-19T13:00:06.206Z,6.95
2022-10-19T13:02:37.382Z,8.25
2022-10-19T13:05:07.580Z,7.22
2022-10-19T13:07:37.981Z,6.55
2022-10-19T13:10:09.818Z,8.30
2022-10-19T13:12:46.731Z,6.60
2022-10-19T13:15:58.363Z,7.20
2022-10-19T13:19:05.255Z,6.63
2022-10-19T13:22:14.824Z,5.80
2022-10-19T13:24:44.536Z,6.32
2022-10-19T13:27:40.372Z,6.70
2022-10-19T13:30:49.013Z,6.45
2022-10-19T13:33:57.062Z,6.20
2022-10-19T13:36:26.511Z,5.90
2022-10-19T13:39:14.248Z,5.78
2022-10-19T13:41:51.855Z,5.85
2022-10-19T13:44:33.984Z,8.88
2022-10-19T13:47:52.717Z,5.03
2022-10-19T13:50:33.809Z,6.03
2022-10-19T13:53:25.772Z,6.10
2022-10-19T13:56:05.437Z,5.00
2022-10-19T13:59:07.569Z,7.07
2022-10-19T14:01:49.674Z,6.03
2022-10-19T14:04:22.313Z,5.10
2022-10-19T14:06:54.483Z,5.53
2022-10-19T14:09:49.647Z,5.93
2022-10-19T14:12:24.461Z,5.85
2022-10-19T14:17:25.653Z,6.13
2022-10-19T14:19:56.290Z,5.70
2022-10-19T14:22:31.197Z,5.30
2022-10-19T14:25:05.413Z,5.75
2022-10-19T14:27:35.258Z,5.90
2022-10-19T14:30:06.628Z,5.25
2022-10-19T14:32:36.829Z,5.00
2022-10-19T14:35:07.522Z,4.60
2022-10-19T14:37:36.680Z,4.50
2022-10-19T14:40:08.927Z,4.20
2022-10-19T14:42:43.164Z,4.47
2022-10-19T14:45:15.640Z,3.90
2022-10-19T14:48:02.410Z,4.30
2022-10-19T14:53:20.325Z,4.53
2022-10-19T14:55:49.781Z,4.78
2022-10-19T14:58:20.478Z,3.88
2022-10-19T15:00:53.399Z,3.95
2022-10-19T15:03:24.292Z,4.55
2022-10-19T15:05:56.783Z,4.30
2022-10-19T15:08:32.353Z,3.63
2022-10-19T15:11:01.105Z,4.97
2022-10-19T15:13:32.814Z,4.35
2022-10-19T15:16:02.766Z,4.10
2022-10-19T15:18:49.546Z,4.10
2022-10-19T15:21:20.637Z,3.53
2022-10-19T15:23:49.809Z,3.80
2022-10-19T15:26:21.198Z,4.30
2022-10-19T15:28:50.890Z,3.38
2022-10-19T15:31:22.238Z,3.42
2022-10-19T15:33:52.479Z,3.33
2022-10-19T15:36:22.592Z,3.25
2022-10-19T15:39:11.832Z,3.30
2022-10-19T15:41:49.645Z,3.60
2022-10-19T15:44:33.362Z,3.15
2022-10-19T15:47:22.019Z,2.75
2022-10-19T15:49:55.755Z,2.60
2022-10-19T15:52:27.725Z,3.17
2022-10-19T15:57:36.853Z,1.95
2022-10-19T16:00:12.551Z,2.05
2022-10-19T16:02:42.335Z,2.28
2022-10-19T16:05:11.660Z,2.50
2022-10-19T16:07:41.801Z,2.65
2022-10-19T16:10:16.930Z,2.80
2022-10-19T16:12:45.698Z,2.50
2022-10-19T16:15:14.542Z,2.25
2022-10-19T16:17:44.845Z,2.15
2022-10-19T16:20:14.329Z,2.55
2022-10-19T16:22:42.731Z,2.25
2022-10-19T16:25:11.153Z,2.45
2022-10-19T16:27:41.378Z,2.55
2022-10-19T16:30:11.224Z,1.60
2022-10-19T16:32:43.457Z,2.72
2022-10-19T16:35:14.629Z,2.75
2022-10-19T16:37:43.053Z,2.78
2022-10-19T16:40:14.372Z,2.67
2022-10-19T16:42:42.814Z,3.20
2022-10-19T16:45:15.033Z,2.97
2022-10-19T16:47:43.505Z,3.03
2022-10-19T16:50:13.274Z,3.03
2022-10-19T16:52:41.767Z,3.30
2022-10-19T16:55:10.410Z,3.47
2022-10-19T16:57:40.267Z,2.95
2022-10-19T17:00:10.249Z,2.95
2022-10-19T17:02:41.949Z,3.40
2022-10-19T17:05:14.376Z,3.25
2022-10-19T17:07:42.967Z,4.50
2022-10-19T17:10:12.132Z,3.33
2022-10-19T17:12:44.238Z,3.80
2022-10-19T17:15:41.436Z,3.60
2022-10-19T17:18:12.825Z,3.83
2022-10-19T17:20:46.341Z,3.55
2022-10-19T17:23:17.728Z,3.13
2022-10-19T17:25:54.971Z,3.42
2022-10-19T17:28:28.815Z,3.17
2022-10-19T17:30:59.064Z,3.17
2022-10-19T17:33:36.541Z,3.20
2022-10-19T17:38:40.051Z,2.70
2022-10-19T17:41:12.830Z,3.20
2022-10-19T17:43:46.254Z,3.30
2022-10-19T17:46:19.255Z,3.30
2022-10-19T17:49:01.691Z,2.72
2022-10-19T17:51:41.561Z,2.25
2022-10-19T17:54:17.726Z,3.20
2022-10-19T17:56:51.181Z,2.15
2022-10-19T17:59:30.265Z,3.33
2022-10-19T18:02:06.492Z,2.72
2022-10-19T18:07:19.267Z,3.83
2022-10-19T18:12:23.401Z,3.15
2022-10-19T18:14:58.972Z,3.63
2022-10-19T18:17:38.158Z,3.47
2022-10-19T18:20:11.227Z,3.70
2022-10-19T18:22:55.771Z,3.33
2022-10-19T18:25:49.302Z,3.58
2022-10-19T18:28:15.604Z,2.80
2022-10-19T18:30:47.349Z,4.30
2022-10-19T18:33:15.734Z,2.17
2022-10-19T18:35:44.096Z,2.45
2022-10-19T18:38:13.860Z,3.50
2022-10-19T18:40:42.191Z,3.08
2022-10-19T18:43:12.022Z,3.17
2022-10-19T18:45:41.546Z,3.28
2022-10-19T18:48:15.788Z,3.17
2022-10-19T18:50:48.027Z,3.05
2022-10-19T18:53:18.463Z,3.65
2022-10-19T18:55:48.057Z,3.35
2022-10-19T18:58:34.370Z,3.25
2022-10-19T19:01:14.136Z,2.50
2022-10-19T19:03:58.657Z,3.22
2022-10-19T19:06:34.535Z,3.80
2022-10-19T19:09:07.552Z,2.92
2022-10-19T19:11:38.474Z,2.78
2022-10-19T19:14:14.712Z,3.08
2022-10-19T19:16:44.487Z,3.20
2022-10-19T19:19:14.276Z,3.20
2022-10-19T19:21:44.697Z,3.55
2022-10-19T19:24:16.610Z,3.38
2022-10-19T19:26:48.505Z,3.47
2022-10-19T19:29:17.048Z,3.22
2022-10-19T19:31:45.713Z,2.50
2022-10-19T19:34:14.282Z,3.25
2022-10-19T19:36:47.750Z,3.20
2022-10-19T19:39:20.198Z,2.38
2022-10-19T19:41:49.554Z,2.22
2022-10-19T19:44:18.792Z,2.70
2022-10-19T19:46:47.311Z,2.70
2022-10-19T19:49:15.775Z,2.97
2022-10-19T19:51:44.371Z,2.58
2022-10-19T19:54:21.998Z,2.30
2022-10-19T19:56:51.482Z,2.40
2022-10-19T19:59:20.622Z,1.80
2022-10-19T20:01:49.057Z,1.92
2022-10-19T20:04:17.506Z,2.00
2022-10-19T20:06:45.878Z,1.80
2022-10-19T20:09:14.302Z,1.75
2022-10-19T20:11:45.501Z,1.33
2022-10-19T20:14:14.238Z,1.50
2022-10-19T20:16:42.748Z,1.50
2022-10-19T20:19:13.632Z,1.35
2022-10-19T20:21:42.520Z,1.83
2022-10-19T20:24:11.355Z,1.00
2022-10-19T20:26:39.813Z,1.00
2022-10-19T20:29:09.682Z,1.30
2022-10-19T20:31:40.669Z,0.82
2022-10-19T20:34:10.937Z,1.25
2022-10-19T20:36:39.402Z,0.90
2022-10-19T20:39:07.831Z,1.30
2022-10-19T20:41:36.414Z,1.10
2022-10-19T20:44:04.952Z,1.15
2022-10-19T20:46:38.104Z,1.20
2022-10-19T20:49:07.584Z,1.35
2022-10-19T20:51:38.064Z,0.95
2022-10-19T20:54:08.303Z,0.93
2022-10-19T20:56:37.962Z,1.08
2022-10-19T20:59:07.620Z,1.15
2022-10-19T21:01:39.109Z,1.42
2022-10-19T21:04:10.826Z,1.30
2022-10-19T21:06:42.017Z,1.58
2022-10-19T21:09:11.247Z,1.50
2022-10-19T21:11:41.139Z,1.10
2022-10-19T21:14:14.457Z,1.30
2022-10-19T21:16:44.375Z,1.17
2022-10-19T21:19:15.233Z,1.33
2022-10-19T21:21:45.307Z,0.85
2022-10-19T21:24:15.557Z,1.52
2022-10-19T21:26:44.238Z,1.15
2022-10-19T21:29:14.269Z,1.63
2022-10-19T21:31:48.656Z,1.42
2022-10-19T21:34:19.192Z,1.40
2022-10-19T21:36:47.872Z,1.50
2022-10-19T21:39:16.278Z,1.40
2022-10-19T21:41:44.666Z,1.58
2022-10-19T21:44:13.367Z,1.70
2022-10-19T21:46:44.116Z,1.60
2022-10-19T21:49:13.227Z,1.50
2022-10-19T21:51:44.575Z,1.60
2022-10-19T21:54:14.809Z,1.83
2022-10-19T21:56:43.372Z,1.50
2022-10-19T21:59:12.266Z,1.67
2022-10-19T22:01:41.476Z,1.50
2022-10-19T22:04:14.114Z,1.33
2022-10-19T22:06:42.915Z,1.80
2022-10-19T22:09:13.899Z,1.38
2022-10-19T22:11:42.335Z,1.60
2022-10-19T22:14:12.001Z,1.38
2022-10-19T22:16:40.989Z,1.40
2022-10-19T22:19:10.171Z,1.13
2022-10-19T22:21:40.297Z,1.30
2022-10-19T22:24:12.007Z,1.55
2022-10-19T22:26:42.691Z,1.38
2022-10-19T22:29:11.228Z,1.52
2022-10-19T22:31:40.255Z,1.58
2022-10-19T22:34:10.617Z,1.75
2022-10-19T22:36:40.300Z,1.70
2022-10-19T22:39:09.391Z,1.63
2022-10-19T22:41:37.829Z,1.50
2022-10-19T22:44:06.406Z,1.90
2022-10-19T22:46:34.838Z,1.35
2022-10-19T22:49:03.325Z,1.60
2022-10-19T22:51:34.441Z,1.50
2022-10-19T22:54:04.559Z,1.70
2022-10-19T22:56:33.026Z,1.48
2022-10-19T22:59:01.910Z,1.60
2022-10-19T23:01:30.360Z,1.48
2022-10-19T23:03:58.908Z,1.40
2022-10-19T23:06:27.527Z,1.35
2022-10-19T23:08:55.967Z,1.50
2022-10-19T23:11:25.805Z,1.33
2022-10-19T23:13:54.156Z,1.55
2022-10-19T23:16:22.638Z,1.52
2022-10-19T23:18:51.049Z,1.40
2022-10-19T23:21:19.641Z,1.50
2022-10-19T23:23:48.108Z,1.30
2022-10-19T23:26:18.243Z,1.20
2022-10-19T23:28:49.810Z,1.60
2022-10-19T23:31:21.073Z,1.20
2022-10-19T23:33:49.548Z,1.70
2022-10-19T23:36:20.097Z,1.75
2022-10-19T23:38:49.468Z,1.60
2022-10-19T23:41:18.679Z,1.77
2022-10-19T23:43:48.801Z,1.70
2022-10-19T23:46:17.433Z,1.63
2022-10-19T23:48:46.104Z,1.35
2022-10-19T23:51:16.215Z,1.40
2022-10-19T23:53:46.738Z,1.92
2022-10-19T23:56:17.094Z,2.00
2022-10-19T23:58:45.928Z,2.03
